sensor_id;sensor_type;location;lat;lon;timestamp;P1;durP1;ratioP1;P2;durP2;ratioP2
9467;SDS011;4772;52.382;9.752;2023-08-06T00:01:58;8.07;;;6.87;;
9467;SDS011;4772;52.382;9.752;2023-08-06T00:04:24;8.50;;;7.60;;
9467;SDS011;4772;52.382;9.752;2023-08-06T00:06:50;8.37;;;7.57;;
9467;SDS011;4772;52.382;9.752;2023-08-06T00:09:16;8.33;;;6.90;;
9467;SDS011;4772;52.382;9.752;2023-08-06T00:11:42;7.23;;;6.53;;
9467;SDS011;4772;52.382;9.752;2023-08-06T00:14:09;7.90;;;6.70;;
9467;SDS011;4772;52.382;9.752;2023-08-06T00:16:35;6.93;;;6.33;;
9467;SDS011;4772;52.382;9.752;2023-08-06T00:19:01;5.87;;;5.27;;
9467;SDS011;4772;52.382;9.752;2023-08-06T00:21:27;7.10;;;5.53;;
9467;SDS011;4772;52.382;9.752;2023-08-06T00:23:53;6.00;;;5.50;;
9467;SDS011;4772;52.382;9.752;2023-08-06T00:26:19;5.80;;;5.30;;
9467;SDS011;4772;52.382;9.752;2023-08-06T00:28:45;5.53;;;5.03;;
9467;SDS011;4772;52.382;9.752;2023-08-06T00:31:11;5.80;;;5.30;;
9467;SDS011;4772;52.382;9.752;2023-08-06T00:33:37;7.27;;;5.03;;
9467;SDS011;4772;52.382;9.752;2023-08-06T00:36:04;5.60;;;5.07;;
9467;SDS011;4772;52.382;9.752;2023-08-06T00:38:30;5.80;;;5.20;;
9467;SDS011;4772;52.382;9.752;2023-08-06T00:40:56;6.10;;;5.50;;
9467;SDS011;4772;52.382;9.752;2023-08-06T00:43:22;7.17;;;5.33;;
9467;SDS011;4772;52.382;9.752;2023-08-06T00:45:48;6.03;;;5.43;;
9467;SDS011;4772;52.382;9.752;2023-08-06T00:48:14;5.80;;;5.30;;
9467;SDS011;4772;52.382;9.752;2023-08-06T00:50:40;6.70;;;6.10;;
9467;SDS011;4772;52.382;9.752;2023-08-06T00:53:06;6.20;;;5.70;;
9467;SDS011;4772;52.382;9.752;2023-08-06T00:55:32;6.60;;;5.97;;
9467;SDS011;4772;52.382;9.752;2023-08-06T00:57:59;6.57;;;5.80;;
9467;SDS011;4772;52.382;9.752;2023-08-06T01:00:25;10.40;;;6.00;;
9467;SDS011;4772;52.382;9.752;2023-08-06T01:02:52;6.83;;;6.23;;
9467;SDS011;4772;52.382;9.752;2023-08-06T01:05:19;6.40;;;5.80;;
9467;SDS011;4772;52.382;9.752;2023-08-06T01:12:52;7.00;;;6.23;;
9467;SDS011;4772;52.382;9.752;2023-08-06T01:15:22;6.93;;;6.27;;
9467;SDS011;4772;52.382;9.752;2023-08-06T01:17:49;7.87;;;6.80;;
9467;SDS011;4772;52.382;9.752;2023-08-06T01:20:15;6.83;;;6.23;;
9467;SDS011;4772;52.382;9.752;2023-08-06T01:22:41;7.47;;;6.27;;
9467;SDS011;4772;52.382;9.752;2023-08-06T01:25:08;6.80;;;6.20;;
9467;SDS011;4772;52.382;9.752;2023-08-06T01:27:38;7.17;;;6.07;;
9467;SDS011;4772;52.382;9.752;2023-08-06T01:30:11;7.00;;;6.40;;
9467;SDS011;4772;52.382;9.752;2023-08-06T01:32:39;8.13;;;7.33;;
9467;SDS011;4772;52.382;9.752;2023-08-06T01:35:07;9.57;;;7.43;;
9467;SDS011;4772;52.382;9.752;2023-08-06T01:37:34;8.27;;;7.47;;
9467;SDS011;4772;52.382;9.752;2023-08-06T01:40:00;8.23;;;7.10;;
9467;SDS011;4772;52.382;9.752;2023-08-06T01:42:26;9.07;;;8.10;;
9467;SDS011;4772;52.382;9.752;2023-08-06T01:44:52;11.10;;;8.57;;
9467;SDS011;4772;52.382;9.752;2023-08-06T01:47:18;10.43;;;8.30;;
9467;SDS011;4772;52.382;9.752;2023-08-06T01:49:44;9.60;;;8.00;;
9467;SDS011;4772;52.382;9.752;2023-08-06T01:52:10;10.87;;;9.03;;
9467;SDS011;4772;52.382;9.752;2023-08-06T01:54:36;11.97;;;9.93;;
9467;SDS011;4772;52.382;9.752;2023-08-06T01:57:02;11.07;;;9.83;;
9467;SDS011;4772;52.382;9.752;2023-08-06T01:59:28;10.57;;;9.10;;
9467;SDS011;4772;52.382;9.752;2023-08-06T02:01:54;10.03;;;9.03;;
9467;SDS011;4772;52.382;9.752;2023-08-06T02:04:20;11.73;;;9.90;;
9467;SDS011;4772;52.382;9.752;2023-08-06T02:06:46;11.00;;;9.27;;
9467;SDS011;4772;52.382;9.752;2023-08-06T02:09:12;9.73;;;8.70;;
9467;SDS011;4772;52.382;9.752;2023-08-06T02:11:38;11.33;;;9.00;;
9467;SDS011;4772;52.382;9.752;2023-08-06T02:14:04;11.67;;;9.13;;
9467;SDS011;4772;52.382;9.752;2023-08-06T02:16:30;11.20;;;10.00;;
9467;SDS011;4772;52.382;9.752;2023-08-06T02:18:56;10.80;;;9.27;;
9467;SDS011;4772;52.382;9.752;2023-08-06T02:21:22;13.77;;;10.17;;
9467;SDS011;4772;52.382;9.752;2023-08-06T02:23:48;14.30;;;10.60;;
9467;SDS011;4772;52.382;9.752;2023-08-06T02:26:14;10.93;;;9.50;;
9467;SDS011;4772;52.382;9.752;2023-08-06T02:28:40;11.53;;;10.23;;
9467;SDS011;4772;52.382;9.752;2023-08-06T02:31:06;14.73;;;10.57;;
9467;SDS011;4772;52.382;9.752;2023-08-06T02:33:32;11.87;;;10.40;;
9467;SDS011;4772;52.382;9.752;2023-08-06T02:35:59;12.17;;;10.87;;
9467;SDS011;4772;52.382;9.752;2023-08-06T02:38:26;14.47;;;12.03;;
9467;SDS011;4772;52.382;9.752;2023-08-06T02:40:55;16.67;;;12.07;;
9467;SDS011;4772;52.382;9.752;2023-08-06T02:43:27;17.27;;;12.20;;
9467;SDS011;4772;52.382;9.752;2023-08-06T02:45:56;17.00;;;12.17;;
9467;SDS011;4772;52.382;9.752;2023-08-06T02:48:22;13.43;;;11.73;;
9467;SDS011;4772;52.382;9.752;2023-08-06T02:50:48;15.63;;;12.27;;
9467;SDS011;4772;52.382;9.752;2023-08-06T02:53:15;13.57;;;11.83;;
9467;SDS011;4772;52.382;9.752;2023-08-06T02:55:45;13.33;;;11.37;;
9467;SDS011;4772;52.382;9.752;2023-08-06T02:58:11;14.83;;;12.07;;
9467;SDS011;4772;52.382;9.752;2023-08-06T03:00:37;14.20;;;12.10;;
9467;SDS011;4772;52.382;9.752;2023-08-06T03:03:03;13.17;;;11.37;;
9467;SDS011;4772;52.382;9.752;2023-08-06T03:05:29;16.40;;;13.60;;
9467;SDS011;4772;52.382;9.752;2023-08-06T03:07:55;17.53;;;12.57;;
9467;SDS011;4772;52.382;9.752;2023-08-06T03:10:22;16.90;;;12.80;;
9467;SDS011;4772;52.382;9.752;2023-08-06T03:12:48;15.30;;;12.77;;
9467;SDS011;4772;52.382;9.752;2023-08-06T03:15:14;17.97;;;12.77;;
9467;SDS011;4772;52.382;9.752;2023-08-06T03:17:40;19.30;;;12.63;;
9467;SDS011;4772;52.382;9.752;2023-08-06T03:20:06;13.97;;;12.37;;
9467;SDS011;4772;52.382;9.752;2023-08-06T03:22:32;14.63;;;12.03;;
9467;SDS011;4772;52.382;9.752;2023-08-06T03:24:58;15.27;;;11.53;;
9467;SDS011;4772;52.382;9.752;2023-08-06T03:27:24;13.70;;;11.63;;
9467;SDS011;4772;52.382;9.752;2023-08-06T03:29:50;12.33;;;10.93;;
9467;SDS011;4772;52.382;9.752;2023-08-06T03:32:16;14.23;;;11.20;;
9467;SDS011;4772;52.382;9.752;2023-08-06T03:34:42;15.50;;;11.57;;
9467;SDS011;4772;52.382;9.752;2023-08-06T03:37:08;17.23;;;11.67;;
9467;SDS011;4772;52.382;9.752;2023-08-06T03:39:34;13.37;;;11.63;;
9467;SDS011;4772;52.382;9.752;2023-08-06T03:42:00;14.10;;;11.53;;
9467;SDS011;4772;52.382;9.752;2023-08-06T03:44:26;15.90;;;12.37;;
9467;SDS011;4772;52.382;9.752;2023-08-06T03:46:53;13.50;;;12.10;;
9467;SDS011;4772;52.382;9.752;2023-08-06T03:49:19;15.27;;;12.17;;
9467;SDS011;4772;52.382;9.752;2023-08-06T03:51:45;14.20;;;11.50;;
9467;SDS011;4772;52.382;9.752;2023-08-06T03:54:12;13.37;;;11.20;;
9467;SDS011;4772;52.382;9.752;2023-08-06T03:56:38;12.83;;;10.53;;
9467;SDS011;4772;52.382;9.752;2023-08-06T03:59:04;13.27;;;11.60;;
9467;SDS011;4772;52.382;9.752;2023-08-06T04:01:30;13.87;;;11.03;;
9467;SDS011;4772;52.382;9.752;2023-08-06T04:03:56;13.30;;;10.60;;
9467;SDS011;4772;52.382;9.752;2023-08-06T04:06:22;12.90;;;11.20;;
9467;SDS011;4772;52.382;9.752;2023-08-06T04:08:48;13.53;;;11.10;;
9467;SDS011;4772;52.382;9.752;2023-08-06T04:11:14;12.90;;;11.53;;
9467;SDS011;4772;52.382;9.752;2023-08-06T04:13:43;15.17;;;11.40;;
9467;SDS011;4772;52.382;9.752;2023-08-06T04:16:09;15.80;;;11.83;;
9467;SDS011;4772;52.382;9.752;2023-08-06T04:18:35;15.73;;;11.57;;
9467;SDS011;4772;52.382;9.752;2023-08-06T04:21:01;14.80;;;12.23;;
9467;SDS011;4772;52.382;9.752;2023-08-06T04:23:27;16.80;;;12.20;;
9467;SDS011;4772;52.382;9.752;2023-08-06T04:25:57;17.87;;;12.80;;
9467;SDS011;4772;52.382;9.752;2023-08-06T04:28:23;16.23;;;12.20;;
9467;SDS011;4772;52.382;9.752;2023-08-06T04:30:49;15.33;;;11.73;;
9467;SDS011;4772;52.382;9.752;2023-08-06T04:33:15;19.27;;;13.40;;
9467;SDS011;4772;52.382;9.752;2023-08-06T04:35:41;15.93;;;12.07;;
9467;SDS011;4772;52.382;9.752;2023-08-06T04:38:07;17.63;;;12.97;;
9467;SDS011;4772;52.382;9.752;2023-08-06T04:40:34;15.50;;;12.30;;
9467;SDS011;4772;52.382;9.752;2023-08-06T04:43:00;14.53;;;12.43;;
9467;SDS011;4772;52.382;9.752;2023-08-06T04:45:26;15.30;;;11.70;;
9467;SDS011;4772;52.382;9.752;2023-08-06T04:47:52;15.13;;;12.33;;
9467;SDS011;4772;52.382;9.752;2023-08-06T04:50:19;16.03;;;12.37;;
9467;SDS011;4772;52.382;9.752;2023-08-06T04:52:45;17.33;;;12.97;;
9467;SDS011;4772;52.382;9.752;2023-08-06T04:55:11;15.93;;;11.90;;
9467;SDS011;4772;52.382;9.752;2023-08-06T04:57:37;15.33;;;12.30;;
9467;SDS011;4772;52.382;9.752;2023-08-06T05:00:03;14.60;;;11.87;;
9467;SDS011;4772;52.382;9.752;2023-08-06T05:02:29;13.83;;;11.87;;
9467;SDS011;4772;52.382;9.752;2023-08-06T05:04:57;14.70;;;11.57;;
9467;SDS011;4772;52.382;9.752;2023-08-06T05:07:23;17.70;;;12.77;;
9467;SDS011;4772;52.382;9.752;2023-08-06T05:09:49;13.60;;;11.63;;
9467;SDS011;4772;52.382;9.752;2023-08-06T05:12:15;14.00;;;12.23;;
9467;SDS011;4772;52.382;9.752;2023-08-06T05:14:41;13.43;;;11.97;;
9467;SDS011;4772;52.382;9.752;2023-08-06T05:17:07;17.00;;;11.40;;
9467;SDS011;4772;52.382;9.752;2023-08-06T05:19:33;14.37;;;12.23;;
9467;SDS011;4772;52.382;9.752;2023-08-06T05:21:59;14.33;;;12.03;;
9467;SDS011;4772;52.382;9.752;2023-08-06T05:24:27;16.50;;;12.40;;
9467;SDS011;4772;52.382;9.752;2023-08-06T05:26:53;14.57;;;12.30;;
9467;SDS011;4772;52.382;9.752;2023-08-06T05:29:19;14.47;;;12.50;;
9467;SDS011;4772;52.382;9.752;2023-08-06T05:31:45;15.87;;;12.97;;
9467;SDS011;4772;52.382;9.752;2023-08-06T05:34:11;18.90;;;12.80;;
9467;SDS011;4772;52.382;9.752;2023-08-06T05:36:37;18.57;;;12.97;;
9467;SDS011;4772;52.382;9.752;2023-08-06T05:39:03;15.67;;;12.90;;
9467;SDS011;4772;52.382;9.752;2023-08-06T05:41:29;15.43;;;12.17;;
9467;SDS011;4772;52.382;9.752;2023-08-06T05:43:55;15.67;;;12.17;;
9467;SDS011;4772;52.382;9.752;2023-08-06T05:46:21;14.43;;;12.13;;
9467;SDS011;4772;52.382;9.752;2023-08-06T05:48:47;16.17;;;12.00;;
9467;SDS011;4772;52.382;9.752;2023-08-06T05:51:13;13.87;;;11.57;;
9467;SDS011;4772;52.382;9.752;2023-08-06T05:53:41;13.47;;;11.10;;
9467;SDS011;4772;52.382;9.752;2023-08-06T05:56:07;12.47;;;10.83;;
9467;SDS011;4772;52.382;9.752;2023-08-06T05:58:33;12.23;;;9.37;;
9467;SDS011;4772;52.382;9.752;2023-08-06T06:00:59;15.53;;;10.00;;
9467;SDS011;4772;52.382;9.752;2023-08-06T06:03:25;10.47;;;8.97;;
9467;SDS011;4772;52.382;9.752;2023-08-06T06:05:51;9.30;;;8.03;;
9467;SDS011;4772;52.382;9.752;2023-08-06T06:08:18;10.33;;;8.03;;
9467;SDS011;4772;52.382;9.752;2023-08-06T06:10:44;7.60;;;6.80;;
9467;SDS011;4772;52.382;9.752;2023-08-06T06:13:10;9.63;;;7.00;;
9467;SDS011;4772;52.382;9.752;2023-08-06T06:15:36;7.73;;;6.50;;
9467;SDS011;4772;52.382;9.752;2023-08-06T06:18:03;7.67;;;6.97;;
9467;SDS011;4772;52.382;9.752;2023-08-06T06:20:31;6.80;;;6.00;;
9467;SDS011;4772;52.382;9.752;2023-08-06T06:22:57;7.80;;;6.43;;
9467;SDS011;4772;52.382;9.752;2023-08-06T06:25:23;8.93;;;6.57;;
9467;SDS011;4772;52.382;9.752;2023-08-06T06:27:49;6.97;;;6.27;;
9467;SDS011;4772;52.382;9.752;2023-08-06T06:30:16;7.20;;;6.50;;
9467;SDS011;4772;52.382;9.752;2023-08-06T06:32:42;7.97;;;6.47;;
9467;SDS011;4772;52.382;9.752;2023-08-06T06:35:08;9.37;;;5.97;;
9467;SDS011;4772;52.382;9.752;2023-08-06T06:37:34;6.50;;;5.90;;
9467;SDS011;4772;52.382;9.752;2023-08-06T06:40:00;6.13;;;5.40;;
9467;SDS011;4772;52.382;9.752;2023-08-06T06:42:26;6.90;;;5.83;;
9467;SDS011;4772;52.382;9.752;2023-08-06T06:44:52;6.47;;;5.40;;
9467;SDS011;4772;52.382;9.752;2023-08-06T06:47:18;7.43;;;5.03;;
9467;SDS011;4772;52.382;9.752;2023-08-06T06:49:44;5.60;;;4.83;;
9467;SDS011;4772;52.382;9.752;2023-08-06T06:52:10;5.23;;;4.43;;
9467;SDS011;4772;52.382;9.752;2023-08-06T06:54:36;4.97;;;4.40;;
9467;SDS011;4772;52.382;9.752;2023-08-06T06:57:02;5.77;;;4.87;;
9467;SDS011;4772;52.382;9.752;2023-08-06T06:59:29;5.97;;;4.70;;
9467;SDS011;4772;52.382;9.752;2023-08-06T07:01:55;6.63;;;4.47;;
9467;SDS011;4772;52.382;9.752;2023-08-06T07:04:21;11.80;;;3.83;;
9467;SDS011;4772;52.382;9.752;2023-08-06T07:06:47;4.30;;;3.30;;
9467;SDS011;4772;52.382;9.752;2023-08-06T07:09:13;3.37;;;3.00;;
9467;SDS011;4772;52.382;9.752;2023-08-06T07:11:39;3.83;;;2.73;;
9467;SDS011;4772;52.382;9.752;2023-08-06T07:14:08;3.03;;;2.73;;
9467;SDS011;4772;52.382;9.752;2023-08-06T07:16:34;6.37;;;2.87;;
9467;SDS011;4772;52.382;9.752;2023-08-06T07:19:00;3.37;;;2.70;;
9467;SDS011;4772;52.382;9.752;2023-08-06T07:21:26;3.20;;;2.57;;
9467;SDS011;4772;52.382;9.752;2023-08-06T07:23:52;4.13;;;2.63;;
9467;SDS011;4772;52.382;9.752;2023-08-06T07:26:19;3.70;;;2.60;;
9467;SDS011;4772;52.382;9.752;2023-08-06T07:28:45;2.83;;;2.23;;
9467;SDS011;4772;52.382;9.752;2023-08-06T07:31:11;3.63;;;2.60;;
9467;SDS011;4772;52.382;9.752;2023-08-06T07:33:37;3.40;;;2.20;;
9467;SDS011;4772;52.382;9.752;2023-08-06T07:36:13;2.20;;;2.00;;
9467;SDS011;4772;52.382;9.752;2023-08-06T07:38:40;2.92;;;2.20;;
9467;SDS011;4772;52.382;9.752;2023-08-06T07:41:06;2.65;;;2.20;;
9467;SDS011;4772;52.382;9.752;2023-08-06T07:43:32;2.78;;;1.92;;
9467;SDS011;4772;52.382;9.752;2023-08-06T07:45:58;2.38;;;1.80;;
9467;SDS011;4772;52.382;9.752;2023-08-06T07:48:25;2.22;;;2.03;;
9467;SDS011;4772;52.382;9.752;2023-08-06T07:50:55;2.10;;;1.90;;
9467;SDS011;4772;52.382;9.752;2023-08-06T07:53:21;2.47;;;2.13;;
9467;SDS011;4772;52.382;9.752;2023-08-06T07:55:50;4.15;;;2.15;;
9467;SDS011;4772;52.382;9.752;2023-08-06T07:58:17;2.17;;;1.98;;
9467;SDS011;4772;52.382;9.752;2023-08-06T08:00:43;2.10;;;1.90;;
9467;SDS011;4772;52.382;9.752;2023-08-06T08:03:11;2.70;;;1.80;;
9467;SDS011;4772;52.382;9.752;2023-08-06T08:05:38;4.10;;;1.90;;
9467;SDS011;4772;52.382;9.752;2023-08-06T08:08:04;2.45;;;2.10;;
9467;SDS011;4772;52.382;9.752;2023-08-06T08:10:30;4.70;;;2.30;;
9467;SDS011;4772;52.382;9.752;2023-08-06T08:12:56;1.80;;;1.70;;
9467;SDS011;4772;52.382;9.752;2023-08-06T08:15:23;1.88;;;1.70;;
9467;SDS011;4772;52.382;9.752;2023-08-06T08:17:51;2.03;;;1.80;;
9467;SDS011;4772;52.382;9.752;2023-08-06T08:20:17;2.30;;;1.85;;
9467;SDS011;4772;52.382;9.752;2023-08-06T08:22:44;4.32;;;1.80;;
9467;SDS011;4772;52.382;9.752;2023-08-06T08:25:10;2.50;;;1.90;;
9467;SDS011;4772;52.382;9.752;2023-08-06T08:27:36;3.35;;;1.90;;
9467;SDS011;4772;52.382;9.752;2023-08-06T08:30:02;2.10;;;1.90;;
9467;SDS011;4772;52.382;9.752;2023-08-06T08:32:28;2.13;;;1.92;;
9467;SDS011;4772;52.382;9.752;2023-08-06T08:34:54;3.45;;;1.92;;
9467;SDS011;4772;52.382;9.752;2023-08-06T08:37:20;2.05;;;1.90;;
9467;SDS011;4772;52.382;9.752;2023-08-06T08:39:46;2.25;;;2.00;;
9467;SDS011;4772;52.382;9.752;2023-08-06T08:42:12;1.80;;;1.70;;
9467;SDS011;4772;52.382;9.752;2023-08-06T08:44:38;1.90;;;1.70;;
9467;SDS011;4772;52.382;9.752;2023-08-06T08:47:08;2.92;;;1.98;;
9467;SDS011;4772;52.382;9.752;2023-08-06T08:49:34;2.40;;;1.85;;
9467;SDS011;4772;52.382;9.752;2023-08-06T08:52:01;1.88;;;1.77;;
9467;SDS011;4772;52.382;9.752;2023-08-06T08:54:28;1.80;;;1.70;;
9467;SDS011;4772;52.382;9.752;2023-08-06T08:56:57;2.17;;;1.80;;
9467;SDS011;4772;52.382;9.752;2023-08-06T08:59:23;1.60;;;1.50;;
9467;SDS011;4772;52.382;9.752;2023-08-06T09:01:49;2.05;;;1.80;;
9467;SDS011;4772;52.382;9.752;2023-08-06T09:04:16;1.90;;;1.70;;
9467;SDS011;4772;52.382;9.752;2023-08-06T09:06:42;4.72;;;1.90;;
9467;SDS011;4772;52.382;9.752;2023-08-06T09:09:09;1.90;;;1.70;;
9467;SDS011;4772;52.382;9.752;2023-08-06T09:11:42;2.88;;;1.80;;
9467;SDS011;4772;52.382;9.752;2023-08-06T09:14:09;2.05;;;1.60;;
9467;SDS011;4772;52.382;9.752;2023-08-06T09:16:35;2.95;;;1.85;;
9467;SDS011;4772;52.382;9.752;2023-08-06T09:19:10;2.67;;;1.88;;
9467;SDS011;4772;52.382;9.752;2023-08-06T09:21:43;2.35;;;1.90;;
9467;SDS011;4772;52.382;9.752;2023-08-06T09:24:12;2.40;;;1.75;;
9467;SDS011;4772;52.382;9.752;2023-08-06T09:26:39;2.63;;;1.90;;
9467;SDS011;4772;52.382;9.752;2023-08-06T09:29:05;2.10;;;1.70;;
9467;SDS011;4772;52.382;9.752;2023-08-06T09:31:46;1.55;;;1.45;;
9467;SDS011;4772;52.382;9.752;2023-08-06T09:34:18;2.85;;;1.80;;
9467;SDS011;4772;52.382;9.752;2023-08-06T09:36:46;2.70;;;1.90;;
9467;SDS011;4772;52.382;9.752;2023-08-06T09:39:15;4.05;;;1.88;;
9467;SDS011;4772;52.382;9.752;2023-08-06T09:41:41;1.80;;;1.70;;
9467;SDS011;4772;52.382;9.752;2023-08-06T09:44:20;2.10;;;1.90;;
9467;SDS011;4772;52.382;9.752;2023-08-06T09:46:51;2.40;;;1.77;;
9467;SDS011;4772;52.382;9.752;2023-08-06T09:49:18;2.10;;;1.83;;
9467;SDS011;4772;52.382;9.752;2023-08-06T09:51:45;2.92;;;1.77;;
9467;SDS011;4772;52.382;9.752;2023-08-06T09:54:12;3.90;;;1.63;;
9467;SDS011;4772;52.382;9.752;2023-08-06T09:56:38;2.35;;;1.70;;
9467;SDS011;4772;52.382;9.752;2023-08-06T09:59:05;2.17;;;1.98;;
9467;SDS011;4772;52.382;9.752;2023-08-06T10:01:32;3.10;;;1.70;;
9467;SDS011;4772;52.382;9.752;2023-08-06T10:03:58;2.88;;;2.00;;
9467;SDS011;4772;52.382;9.752;2023-08-06T10:06:25;2.63;;;2.00;;
9467;SDS011;4772;52.382;9.752;2023-08-06T10:08:52;5.22;;;2.03;;
9467;SDS011;4772;52.382;9.752;2023-08-06T10:11:18;2.78;;;1.90;;
9467;SDS011;4772;52.382;9.752;2023-08-06T10:13:47;3.85;;;1.90;;
9467;SDS011;4772;52.382;9.752;2023-08-06T10:16:13;4.90;;;2.00;;
9467;SDS011;4772;52.382;9.752;2023-08-06T10:18:40;2.92;;;1.80;;
9467;SDS011;4772;52.382;9.752;2023-08-06T10:21:07;2.53;;;1.80;;
9467;SDS011;4772;52.382;9.752;2023-08-06T10:23:34;2.00;;;1.70;;
9467;SDS011;4772;52.382;9.752;2023-08-06T10:26:00;2.72;;;1.83;;
9467;SDS011;4772;52.382;9.752;2023-08-06T10:28:36;2.55;;;1.98;;
9467;SDS011;4772;52.382;9.752;2023-08-06T10:31:03;2.13;;;1.90;;
9467;SDS011;4772;52.382;9.752;2023-08-06T10:33:42;2.15;;;1.98;;
9467;SDS011;4772;52.382;9.752;2023-08-06T10:36:08;2.85;;;1.65;;
9467;SDS011;4772;52.382;9.752;2023-08-06T10:38:35;1.90;;;1.73;;
9467;SDS011;4772;52.382;9.752;2023-08-06T10:41:03;3.80;;;2.08;;
9467;SDS011;4772;52.382;9.752;2023-08-06T10:43:29;2.13;;;2.03;;
9467;SDS011;4772;52.382;9.752;2023-08-06T10:45:59;2.20;;;1.98;;
9467;SDS011;4772;52.382;9.752;2023-08-06T10:48:28;2.67;;;2.00;;
9467;SDS011;4772;52.382;9.752;2023-08-06T10:50:56;2.47;;;1.90;;
9467;SDS011;4772;52.382;9.752;2023-08-06T10:53:22;3.58;;;2.03;;
9467;SDS011;4772;52.382;9.752;2023-08-06T10:55:48;3.13;;;1.85;;
9467;SDS011;4772;52.382;9.752;2023-08-06T10:58:17;2.30;;;2.08;;
9467;SDS011;4772;52.382;9.752;2023-08-06T11:00:43;2.10;;;1.90;;
9467;SDS011;4772;52.382;9.752;2023-08-06T11:03:09;1.80;;;1.70;;
9467;SDS011;4772;52.382;9.752;2023-08-06T11:05:38;4.80;;;3.40;;
9467;SDS011;4772;52.382;9.752;2023-08-06T11:08:04;2.92;;;2.20;;
9467;SDS011;4772;52.382;9.752;2023-08-06T11:10:32;1.90;;;1.80;;
9467;SDS011;4772;52.382;9.752;2023-08-06T11:13:02;2.20;;;1.92;;
9467;SDS011;4772;52.382;9.752;2023-08-06T11:15:29;1.98;;;1.80;;
9467;SDS011;4772;52.382;9.752;2023-08-06T11:17:55;2.10;;;1.90;;
9467;SDS011;4772;52.382;9.752;2023-08-06T11:20:21;3.92;;;2.72;;
9467;SDS011;4772;52.382;9.752;2023-08-06T11:22:47;2.95;;;1.70;;
9467;SDS011;4772;52.382;9.752;2023-08-06T11:25:13;2.75;;;2.17;;
9467;SDS011;4772;52.382;9.752;2023-08-06T11:27:39;2.67;;;2.00;;
9467;SDS011;4772;52.382;9.752;2023-08-06T11:30:05;2.10;;;1.90;;
9467;SDS011;4772;52.382;9.752;2023-08-06T11:32:31;5.22;;;3.42;;
9467;SDS011;4772;52.382;9.752;2023-08-06T11:35:08;2.35;;;1.90;;
9467;SDS011;4772;52.382;9.752;2023-08-06T11:37:34;3.17;;;2.70;;
9467;SDS011;4772;52.382;9.752;2023-08-06T11:40:01;2.88;;;2.33;;
9467;SDS011;4772;52.382;9.752;2023-08-06T11:42:32;4.07;;;2.88;;
9467;SDS011;4772;52.382;9.752;2023-08-06T11:44:58;2.50;;;2.13;;
9467;SDS011;4772;52.382;9.752;2023-08-06T11:47:24;3.33;;;1.92;;
9467;SDS011;4772;52.382;9.752;2023-08-06T11:49:50;7.38;;;4.07;;
9467;SDS011;4772;52.382;9.752;2023-08-06T11:52:20;2.72;;;1.90;;
9467;SDS011;4772;52.382;9.752;2023-08-06T11:54:59;3.33;;;2.55;;
9467;SDS011;4772;52.382;9.752;2023-08-06T11:57:26;2.17;;;1.95;;
9467;SDS011;4772;52.382;9.752;2023-08-06T11:59:53;2.60;;;2.00;;
9467;SDS011;4772;52.382;9.752;2023-08-06T12:02:21;2.72;;;2.20;;
9467;SDS011;4772;52.382;9.752;2023-08-06T12:07:33;2.13;;;2.00;;
9467;SDS011;4772;52.382;9.752;2023-08-06T12:10:02;2.53;;;2.00;;
9467;SDS011;4772;52.382;9.752;2023-08-06T12:12:28;3.63;;;1.98;;
9467;SDS011;4772;52.382;9.752;2023-08-06T12:14:54;3.08;;;2.35;;
9467;SDS011;4772;52.382;9.752;2023-08-06T12:17:21;4.38;;;2.47;;
9467;SDS011;4772;52.382;9.752;2023-08-06T12:19:48;2.30;;;2.10;;
9467;SDS011;4772;52.382;9.752;2023-08-06T12:22:14;2.20;;;2.10;;
9467;SDS011;4772;52.382;9.752;2023-08-06T12:24:41;2.50;;;2.30;;
9467;SDS011;4772;52.382;9.752;2023-08-06T12:27:07;2.15;;;1.95;;
9467;SDS011;4772;52.382;9.752;2023-08-06T12:29:33;2.95;;;2.20;;
9467;SDS011;4772;52.382;9.752;2023-08-06T12:31:59;2.20;;;2.00;;
9467;SDS011;4772;52.382;9.752;2023-08-06T12:34:25;2.45;;;2.25;;
9467;SDS011;4772;52.382;9.752;2023-08-06T12:36:52;2.90;;;2.35;;
9467;SDS011;4772;52.382;9.752;2023-08-06T12:39:18;2.30;;;2.10;;
9467;SDS011;4772;52.382;9.752;2023-08-06T12:41:44;2.65;;;1.92;;
9467;SDS011;4772;52.382;9.752;2023-08-06T12:44:11;2.60;;;2.38;;
9467;SDS011;4772;52.382;9.752;2023-08-06T12:46:37;2.35;;;2.15;;
9467;SDS011;4772;52.382;9.752;2023-08-06T12:49:03;3.85;;;2.70;;
9467;SDS011;4772;52.382;9.752;2023-08-06T12:51:30;2.63;;;2.42;;
9467;SDS011;4772;52.382;9.752;2023-08-06T12:53:56;2.53;;;2.33;;
9467;SDS011;4772;52.382;9.752;2023-08-06T12:56:22;3.35;;;2.55;;
9467;SDS011;4772;52.382;9.752;2023-08-06T12:58:48;3.78;;;3.22;;
9467;SDS011;4772;52.382;9.752;2023-08-06T13:01:14;2.30;;;2.10;;
9467;SDS011;4772;52.382;9.752;2023-08-06T13:03:40;2.60;;;2.40;;
9467;SDS011;4772;52.382;9.752;2023-08-06T13:06:07;3.13;;;2.22;;
9467;SDS011;4772;52.382;9.752;2023-08-06T13:08:34;4.05;;;2.42;;
9467;SDS011;4772;52.382;9.752;2023-08-06T13:11:01;4.35;;;2.50;;
9467;SDS011;4772;52.382;9.752;2023-08-06T13:13:27;3.13;;;2.45;;
9467;SDS011;4772;52.382;9.752;2023-08-06T13:15:53;6.57;;;3.00;;
9467;SDS011;4772;52.382;9.752;2023-08-06T13:18:19;3.15;;;2.47;;
9467;SDS011;4772;52.382;9.752;2023-08-06T13:20:45;3.00;;;2.65;;
9467;SDS011;4772;52.382;9.752;2023-08-06T13:23:13;2.50;;;2.30;;
9467;SDS011;4772;52.382;9.752;2023-08-06T13:25:41;3.58;;;2.70;;
9467;SDS011;4772;52.382;9.752;2023-08-06T13:28:07;2.80;;;2.58;;
9467;SDS011;4772;52.382;9.752;2023-08-06T13:30:33;2.83;;;2.45;;
9467;SDS011;4772;52.382;9.752;2023-08-06T13:33:02;2.78;;;2.58;;
9467;SDS011;4772;52.382;9.752;2023-08-06T13:35:29;2.70;;;2.50;;
9467;SDS011;4772;52.382;9.752;2023-08-06T13:37:55;2.90;;;2.58;;
9467;SDS011;4772;52.382;9.752;2023-08-06T13:40:21;2.33;;;2.20;;
9467;SDS011;4772;52.382;9.752;2023-08-06T13:42:47;5.53;;;2.58;;
9467;SDS011;4772;52.382;9.752;2023-08-06T13:45:13;2.72;;;2.38;;
9467;SDS011;4772;52.382;9.752;2023-08-06T13:47:39;2.30;;;1.90;;
9467;SDS011;4772;52.382;9.752;2023-08-06T13:50:05;2.30;;;2.10;;
9467;SDS011;4772;52.382;9.752;2023-08-06T13:52:31;2.47;;;2.28;;
9467;SDS011;4772;52.382;9.752;2023-08-06T13:54:57;2.95;;;2.30;;
9467;SDS011;4772;52.382;9.752;2023-08-06T13:57:23;2.70;;;2.10;;
9467;SDS011;4772;52.382;9.752;2023-08-06T13:59:49;2.33;;;2.17;;
9467;SDS011;4772;52.382;9.752;2023-08-06T14:02:15;2.63;;;2.17;;
9467;SDS011;4772;52.382;9.752;2023-08-06T14:04:42;2.25;;;2.05;;
9467;SDS011;4772;52.382;9.752;2023-08-06T14:07:08;2.22;;;2.03;;
9467;SDS011;4772;52.382;9.752;2023-08-06T14:09:34;3.45;;;2.30;;
9467;SDS011;4772;52.382;9.752;2023-08-06T14:12:01;3.03;;;2.40;;
9467;SDS011;4772;52.382;9.752;2023-08-06T14:14:30;2.50;;;2.30;;
9467;SDS011;4772;52.382;9.752;2023-08-06T14:16:57;3.72;;;2.65;;
9467;SDS011;4772;52.382;9.752;2023-08-06T14:19:23;2.55;;;2.35;;
9467;SDS011;4772;52.382;9.752;2023-08-06T14:21:49;2.20;;;2.00;;
9467;SDS011;4772;52.382;9.752;2023-08-06T14:24:15;3.53;;;2.17;;
9467;SDS011;4772;52.382;9.752;2023-08-06T14:26:41;2.53;;;2.30;;
9467;SDS011;4772;52.382;9.752;2023-08-06T14:29:08;2.70;;;2.40;;
9467;SDS011;4772;52.382;9.752;2023-08-06T14:31:34;2.88;;;2.63;;
9467;SDS011;4772;52.382;9.752;2023-08-06T14:34:00;2.83;;;2.60;;
9467;SDS011;4772;52.382;9.752;2023-08-06T14:36:26;3.03;;;2.50;;
9467;SDS011;4772;52.382;9.752;2023-08-06T14:38:52;4.13;;;2.78;;
9467;SDS011;4772;52.382;9.752;2023-08-06T14:41:18;3.20;;;2.20;;
9467;SDS011;4772;52.382;9.752;2023-08-06T14:43:44;2.40;;;2.20;;
9467;SDS011;4772;52.382;9.752;2023-08-06T14:46:10;2.72;;;2.45;;
9467;SDS011;4772;52.382;9.752;2023-08-06T14:48:36;2.92;;;2.65;;
9467;SDS011;4772;52.382;9.752;2023-08-06T14:51:02;2.85;;;2.35;;
9467;SDS011;4772;52.382;9.752;2023-08-06T14:53:28;2.50;;;2.30;;
9467;SDS011;4772;52.382;9.752;2023-08-06T14:55:54;2.23;;;2.10;;
9467;SDS011;4772;52.382;9.752;2023-08-06T14:58:20;2.80;;;2.50;;
9467;SDS011;4772;52.382;9.752;2023-08-06T15:00:46;2.60;;;2.40;;
9467;SDS011;4772;52.382;9.752;2023-08-06T15:03:12;2.53;;;2.33;;
9467;SDS011;4772;52.382;9.752;2023-08-06T15:05:38;2.33;;;2.13;;
9467;SDS011;4772;52.382;9.752;2023-08-06T15:08:04;3.97;;;2.37;;
9467;SDS011;4772;52.382;9.752;2023-08-06T15:10:30;2.50;;;2.30;;
9467;SDS011;4772;52.382;9.752;2023-08-06T15:12:56;3.10;;;2.80;;